Megargel, AL (36457)

12:52 AM CDT on October 01, 2014 (GMT -0500)
KALFRISC2 | Change Station
CLOSE
Current Station
Personal Weather Station
Location: Perdue Hill, AL
Elevation: 70 ft
Nearby Weather Stations

Elev 70 ft 31.58 °N, 87.49 °W | Updated 2 minutes ago

Clear
Clear
66.3 °F
Feels Like 66.3 °F
N
0.0
Wind Variable Wind from East
Gusts 0.0 mph

Today
High -- | Low -- °F
--% Chance of Precip.
Yesterday
High -- | Low -- °F
Precip. -- in
6:43 AM 6:34 PM
Waxing Crescent, 44% visible
Pressure 29.92 in
Visibility 2.5 miles
Clouds Clear
Dew Point 65 °F
Humidity 96%
Rainfall 0.00 in
Snow Depth Not available.
UV 0 out of 12
Pollen 7.20 out of 12
Air Quality Not available.
Flu Activity Not available.
METAR KGZH 010325Z AUTO 00000KT 2 1/2SM BR CLR 19/18 A2992 RMK AO2 T01890178

More Conditions Fewer Conditions

Pressure 29.92 in
Visibility 2.5 miles
Clouds Clear
Dew Point 65 °F
Humidity 96%
Rainfall 0.00 in
Snow Depth Not available.
UV 0 out of 12
Pollen 7.20 out of 12
Air Quality Not available.
Flu Activity Not available.
METAR KGZH 010325Z AUTO 00000KT 2 1/2SM BR CLR 19/18 A2992 RMK AO2 T01890178

More Conditions Fewer Conditions

10-Day Weather Forecast

Almanac

Astronomy

Oct. 01, 2014 Rise Set
Actual Time 6:43 AM CDT 6:34 PM CDT
Civil Twilight 6:19 AM CDT 6:58 PM CDT
Nautical Twilight 5:51 AM CDT 7:27 PM CDT
Astronomical Twilight 5:22 AM CDT 7:55 PM CDT
Moon 1:28 PM CDT No Moon Set
Length of Visible Light 12h 39m
Length of Day
11h 51m
Tomorrow will be 1m 53s shorter.
Waxing Crescent, 44% of the Moon is Illuminated
Today
Waxing Crescent
Oct 1
First Quarter
Oct 8
Full
Oct 15
Last Quarter
Oct 23
New

Today's Extremes

State Highs State Lows

Community

WunderPhotos

Upload Photos

1,757,875 photos uploaded!

Nearby

Snow Depth

Station Depth Elevation
No new snow has been reported.

Earthquake Activity

City Distance Mag. Time & Date
No recent earthquake activity has been reported nearby.
Minimum magnitude displayed is 2.5.

Coastal Water Temperatures

Place Temperature
No Stations Reporting

Nearby Weather Stations